Time;durP1;ratioP1;P1;durP2;ratioP2;P2;SDS_P1;SDS_P2;PMS_P1;PMS_P2;Temp;Humidity;BMP_temperature;BMP_pressure;BME280_temperature;BME280_humidity;BME280_pressure;Samples;Min_cycle;Max_cycle;Signal;HPM_P1;HPM_P2
2021/05/14 00:00:44;;;;;;;3.80;3.00;;;11.00;99.90;;;;;;4835295;29;20691;-77
2021/05/14 00:03:09;;;;;;;6.77;4.63;;;11.00;99.90;;;;;;4806173;29;20432;-76
2021/05/14 00:05:36;;;;;;;6.20;3.00;;;10.90;99.90;;;;;;4806005;29;20479;-77
2021/05/14 00:08:03;;;;;;;3.20;2.90;;;10.90;99.90;;;;;;4806339;29;20179;-76
2021/05/14 00:10:28;;;;;;;3.08;2.45;;;10.70;99.90;;;;;;4806186;29;20247;-75
2021/05/14 00:12:54;;;;;;;5.60;3.07;;;10.60;99.90;;;;;;4806352;29;20865;-74
2021/05/14 00:15:20;;;;;;;3.25;2.95;;;10.60;99.90;;;;;;4805596;29;20222;-75
2021/05/14 00:17:46;;;;;;;6.75;3.40;;;10.60;99.90;;;;;;4806391;29;20555;-78
2021/05/14 00:20:13;;;;;;;3.70;2.90;;;10.60;99.90;;;;;;4804951;29;20193;-76
2021/05/14 00:22:39;;;;;;;2.63;2.33;;;10.50;99.90;;;;;;4806177;29;20827;-76
2021/05/14 00:25:06;;;;;;;8.40;3.70;;;10.60;99.90;;;;;;4805684;29;20558;-78
2021/05/14 00:27:32;;;;;;;3.55;3.08;;;10.60;99.90;;;;;;4806084;29;20197;-77
2021/05/14 00:29:58;;;;;;;5.67;2.70;;;10.50;99.90;;;;;;4806220;29;20279;-77
2021/05/14 00:32:23;;;;;;;3.30;3.00;;;10.40;99.90;;;;;;4806097;29;20430;-78
2021/05/14 00:34:49;;;;;;;2.90;2.70;;;10.40;99.90;;;;;;4805486;29;20249;-77
2021/05/14 00:37:15;;;;;;;3.40;2.73;;;10.40;99.90;;;;;;4805928;29;20182;-75
2021/05/14 00:39:40;;;;;;;3.83;3.20;;;10.30;99.90;;;;;;4805879;29;20200;-76
2021/05/14 00:42:06;;;;;;;3.23;2.93;;;10.20;99.90;;;;;;4806004;29;20227;-78
2021/05/14 00:44:36;;;;;;;3.00;2.63;;;10.20;99.90;;;;;;4805590;29;20190;-75
2021/05/14 00:47:04;;;;;;;3.53;2.70;;;10.10;99.90;;;;;;4805958;29;20178;-77
2021/05/14 00:49:29;;;;;;;4.78;3.83;;;10.10;99.90;;;;;;4806432;29;20206;-76
2021/05/14 00:51:57;;;;;;;4.67;3.40;;;10.00;99.90;;;;;;4809199;29;20257;-76
2021/05/14 00:54:22;;;;;;;4.00;3.70;;;10.00;99.90;;;;;;4809438;29;20241;-77
2021/05/14 00:56:48;;;;;;;5.93;2.97;;;9.90;99.90;;;;;;4809653;29;20197;-78
2021/05/14 00:59:14;;;;;;;4.10;3.70;;;9.80;99.90;;;;;;4809589;29;20217;-76
2021/05/14 01:01:40;;;;;;;3.60;3.30;;;9.70;99.90;;;;;;4838719;29;20241;-77
2021/05/14 01:04:06;;;;;;;3.47;2.40;;;9.70;99.90;;;;;;4809277;29;20434;-77
2021/05/14 01:06:32;;;;;;;4.90;4.03;;;9.70;99.90;;;;;;4838446;29;20221;-78
2021/05/14 01:08:58;;;;;;;6.40;4.03;;;9.70;99.90;;;;;;4809476;29;20431;-79
2021/05/14 01:11:24;;;;;;;4.50;3.78;;;9.70;99.90;;;;;;4809329;29;20446;-77
2021/05/14 01:13:50;;;;;;;4.47;4.07;;;9.60;99.90;;;;;;4809203;29;20213;-76
2021/05/14 01:16:15;;;;;;;4.63;4.20;;;9.60;99.90;;;;;;4837936;29;20202;-76
2021/05/14 01:18:41;;;;;;;4.37;3.60;;;9.60;99.90;;;;;;4809156;29;20182;-76
2021/05/14 01:21:07;;;;;;;6.20;3.73;;;9.50;99.90;;;;;;4838028;29;20644;-80
2021/05/14 01:23:32;;;;;;;5.83;3.30;;;9.50;99.90;;;;;;4808808;29;20242;-79
2021/05/14 01:25:58;;;;;;;7.00;3.70;;;9.50;99.90;;;;;;4808579;29;20699;-78
2021/05/14 01:28:24;;;;;;;5.20;4.20;;;9.40;99.90;;;;;;4808860;29;20190;-77
2021/05/14 01:30:49;;;;;;;3.73;3.43;;;9.40;99.90;;;;;;4808852;29;20194;-77
2021/05/14 01:33:15;;;;;;;4.47;4.07;;;9.30;99.90;;;;;;4808742;29;20498;-78
2021/05/14 01:35:41;;;;;;;5.80;3.93;;;9.30;99.90;;;;;;4808234;29;20222;-78
2021/05/14 01:38:09;;;;;;;4.10;3.70;;;9.20;99.90;;;;;;4808752;29;20625;-76
2021/05/14 01:40:35;;;;;;;6.28;4.50;;;9.10;99.90;;;;;;4808757;29;20240;-75
2021/05/14 01:43:01;;;;;;;4.18;3.55;;;9.10;99.90;;;;;;4808973;29;20179;-75
2021/05/14 01:45:27;;;;;;;6.80;4.40;;;9.10;99.90;;;;;;4808351;29;20210;-77
2021/05/14 01:47:52;;;;;;;5.00;3.93;;;9.00;99.90;;;;;;4837939;29;20190;-77
2021/05/14 01:50:19;;;;;;;3.53;3.23;;;9.00;99.90;;;;;;4808655;29;20501;-77
2021/05/14 01:52:45;;;;;;;4.43;3.50;;;9.00;99.90;;;;;;4808679;29;20187;-76
2021/05/14 01:55:11;;;;;;;4.20;3.67;;;9.00;99.90;;;;;;4808361;29;20214;-77
2021/05/14 01:57:37;;;;;;;4.40;3.73;;;9.00;99.90;;;;;;4809064;29;20207;-78
2021/05/14 02:00:07;;;;;;;3.67;3.38;;;8.90;99.90;;;;;;4809132;29;20839;-76
2021/05/14 02:02:33;;;;;;;5.50;4.88;;;8.90;99.90;;;;;;4808852;29;20186;-78
2021/05/14 02:04:59;;;;;;;4.20;3.80;;;8.90;99.90;;;;;;4808478;29;20217;-77
2021/05/14 02:07:24;;;;;;;4.97;4.30;;;8.90;99.90;;;;;;4808867;29;20562;-78
2021/05/14 02:09:52;;;;;;;3.90;3.10;;;8.80;99.90;;;;;;4808742;29;20720;-77
2021/05/14 02:12:17;;;;;;;5.00;3.67;;;8.80;99.90;;;;;;4808800;29;20276;-78
2021/05/14 02:14:43;;;;;;;5.90;3.77;;;8.80;99.90;;;;;;4808183;29;20309;-78
2021/05/14 02:17:09;;;;;;;5.17;4.23;;;8.70;99.90;;;;;;4808863;29;20277;-77
2021/05/14 02:19:35;;;;;;;4.13;3.10;;;8.70;99.90;;;;;;4808759;29;20186;-76
2021/05/14 02:22:01;;;;;;;3.92;3.63;;;8.60;99.90;;;;;;4808710;29;20269;-77
2021/05/14 02:24:27;;;;;;;3.90;3.40;;;8.70;99.90;;;;;;4837461;29;20237;-78
2021/05/14 02:26:52;;;;;;;4.17;3.60;;;8.60;99.90;;;;;;4808165;29;20428;-77
2021/05/14 02:29:18;;;;;;;4.20;3.80;;;8.50;99.90;;;;;;4809095;29;20207;-78
2021/05/14 02:31:44;;;;;;;3.80;3.50;;;8.50;99.90;;;;;;4808703;29;20190;-78
2021/05/14 02:34:09;;;;;;;3.60;3.30;;;8.50;99.90;;;;;;4808202;29;20210;-77
2021/05/14 02:36:35;;;;;;;4.30;3.90;;;8.40;99.90;;;;;;4808438;29;20206;-78
2021/05/14 02:39:01;;;;;;;4.43;4.03;;;8.40;99.90;;;;;;4808934;29;20586;-78
2021/05/14 02:41:26;;;;;;;4.77;3.70;;;8.30;99.90;;;;;;4807596;29;20183;-77
2021/05/14 02:43:52;;;;;;;4.57;4.17;;;8.30;99.90;;;;;;4808219;29;20202;-78
2021/05/14 02:46:17;;;;;;;6.97;4.47;;;8.30;99.90;;;;;;4807771;29;20206;-77
2021/05/14 02:48:43;;;;;;;3.70;3.40;;;8.30;99.90;;;;;;4807992;29;20190;-78
2021/05/14 02:51:08;;;;;;;5.27;4.17;;;8.20;99.90;;;;;;4808091;29;20247;-77
2021/05/14 02:53:34;;;;;;;4.00;3.50;;;8.20;99.90;;;;;;4807942;29;20201;-76
2021/05/14 02:56:00;;;;;;;4.10;3.70;;;8.20;99.90;;;;;;4807512;29;20218;-77
2021/05/14 02:58:25;;;;;;;5.20;3.70;;;8.20;99.90;;;;;;4807812;29;20208;-76
2021/05/14 03:00:51;;;;;;;3.97;3.57;;;8.20;99.90;;;;;;4807915;29;20530;-77
2021/05/14 03:03:17;;;;;;;6.87;4.00;;;8.10;99.90;;;;;;4807776;29;20190;-77
2021/05/14 03:05:42;;;;;;;5.90;3.73;;;8.20;99.90;;;;;;4807405;29;20206;-77
2021/05/14 03:08:08;;;;;;;4.47;4.00;;;8.10;99.90;;;;;;4807856;29;20182;-76
2021/05/14 03:10:34;;;;;;;4.30;3.90;;;8.10;99.90;;;;;;4807490;29;20186;-78
2021/05/14 03:12:59;;;;;;;5.07;4.63;;;8.00;99.90;;;;;;4807271;29;20186;-77
2021/05/14 03:15:25;;;;;;;4.80;4.40;;;8.00;99.90;;;;;;4836225;29;20215;-77
2021/05/14 03:17:50;;;;;;;4.80;4.40;;;8.00;99.90;;;;;;4836493;29;20270;-77
2021/05/14 03:20:16;;;;;;;5.83;5.23;;;7.90;99.90;;;;;;4807175;29;20526;-76
2021/05/14 03:22:42;;;;;;;7.53;5.10;;;8.00;99.90;;;;;;4807407;29;20186;-76
2021/05/14 03:25:10;;;;;;;7.87;5.63;;;8.00;99.90;;;;;;4806967;29;20233;-77
2021/05/14 03:27:36;;;;;;;7.15;4.80;;;8.00;99.90;;;;;;4807032;29;20187;-78
2021/05/14 03:30:04;;;;;;;6.82;5.03;;;7.90;99.90;;;;;;4806762;29;20263;-77
2021/05/14 03:32:30;;;;;;;6.00;5.45;;;7.90;99.90;;;;;;4806834;29;20278;-77
2021/05/14 03:34:55;;;;;;;5.40;4.90;;;7.90;99.90;;;;;;4806428;29;20300;-76
2021/05/14 03:37:21;;;;;;;6.03;5.10;;;7.90;99.90;;;;;;4806829;29;20193;-76
2021/05/14 03:39:51;;;;;;;7.63;6.67;;;7.80;99.90;;;;;;4806578;29;20182;-78
2021/05/14 03:42:23;;;;;;;5.78;5.28;;;7.80;99.90;;;;;;4806498;29;20174;-75
2021/05/14 03:44:48;;;;;;;6.30;5.72;;;7.80;99.90;;;;;;4806316;29;20771;-77
2021/05/14 03:47:14;;;;;;;6.60;6.00;;;7.80;99.90;;;;;;4806541;29;20265;-78
2021/05/14 03:49:40;;;;;;;5.23;4.83;;;7.80;99.90;;;;;;4806554;29;20431;-76
2021/05/14 03:52:07;;;;;;;7.03;6.35;;;7.70;99.90;;;;;;4806580;29;20558;-76
2021/05/14 03:54:33;;;;;;;6.72;6.13;;;7.70;99.90;;;;;;4805919;29;20205;-77
2021/05/14 03:56:59;;;;;;;6.45;5.95;;;7.80;99.90;;;;;;4806538;29;20301;-78
2021/05/14 03:59:25;;;;;;;9.50;6.23;;;7.80;99.90;;;;;;4806700;29;20212;-78
2021/05/14 04:01:51;;;;;;;5.50;5.00;;;7.70;99.90;;;;;;4806750;29;20257;-79
2021/05/14 04:04:17;;;;;;;6.53;6.03;;;7.70;99.90;;;;;;4806263;29;20290;-78
2021/05/14 04:06:43;;;;;;;6.80;5.87;;;7.80;99.90;;;;;;4806289;29;20961;-78
2021/05/14 04:09:09;;;;;;;6.23;5.73;;;7.80;99.90;;;;;;4806648;29;20424;-76
2021/05/14 04:16:45;;;;;;;7.55;6.85;;;7.90;99.90;;;;;;4806509;29;20199;-77
2021/05/14 04:19:10;;;;;;;12.37;7.03;;;7.90;99.90;;;;;;4806451;29;20175;-77
2021/05/14 04:21:36;;;;;;;7.17;6.57;;;7.90;99.90;;;;;;4806502;29;20261;-76
2021/05/14 04:24:03;;;;;;;6.73;6.13;;;7.90;99.90;;;;;;4806247;29;20482;-77
2021/05/14 04:26:28;;;;;;;9.05;6.97;;;7.80;99.90;;;;;;4808262;29;20459;-75
2021/05/14 04:28:54;;;;;;;7.73;6.93;;;7.90;99.90;;;;;;4810035;29;20201;-78
2021/05/14 04:31:20;;;;;;;7.80;6.50;;;7.90;99.90;;;;;;4810304;29;20214;-77
2021/05/14 04:33:45;;;;;;;7.17;6.47;;;7.90;99.90;;;;;;4810143;29;20273;-75
2021/05/14 04:36:11;;;;;;;6.43;5.77;;;8.00;99.90;;;;;;4809647;29;20213;-75
2021/05/14 04:38:36;;;;;;;6.90;5.97;;;7.90;99.90;;;;;;4810047;29;20592;-76
2021/05/14 04:41:02;;;;;;;6.03;5.13;;;7.90;99.90;;;;;;4810161;29;20210;-76
2021/05/14 04:43:28;;;;;;;6.10;5.20;;;7.90;99.90;;;;;;4839678;29;20183;-75
2021/05/14 04:45:53;;;;;;;5.13;4.50;;;7.90;99.90;;;;;;4809387;29;20220;-78
2021/05/14 04:48:19;;;;;;;7.43;4.03;;;7.90;99.90;;;;;;4809591;29;20270;-77
2021/05/14 04:50:45;;;;;;;5.40;4.90;;;8.00;99.90;;;;;;4809277;29;20189;-75
2021/05/14 04:53:13;;;;;;;6.40;4.93;;;8.00;99.90;;;;;;4809394;29;20296;-77
2021/05/14 04:55:39;;;;;;;5.45;4.95;;;8.10;99.90;;;;;;4809141;29;20301;-76
2021/05/14 04:58:05;;;;;;;4.90;4.40;;;8.20;99.90;;;;;;4809536;29;20205;-76
2021/05/14 05:00:31;;;;;;;6.27;4.90;;;8.30;99.90;;;;;;4838585;29;20284;-77
2021/05/14 05:02:58;;;;;;;5.40;4.90;;;8.30;99.90;;;;;;4809161;29;20515;-77
2021/05/14 05:05:24;;;;;;;9.77;4.72;;;8.30;99.90;;;;;;4808918;29;20206;-77
2021/05/14 05:07:49;;;;;;;4.97;4.47;;;8.30;99.90;;;;;;4809269;29;20255;-76
2021/05/14 05:10:17;;;;;;;4.50;4.10;;;8.40;99.90;;;;;;4809244;29;20424;-77
2021/05/14 05:12:43;;;;;;;4.57;3.88;;;8.40;99.90;;;;;;4809480;29;20247;-78
2021/05/14 05:15:10;;;;;;;5.13;3.87;;;8.50;99.90;;;;;;4808574;29;20700;-76
2021/05/14 05:17:36;;;;;;;5.57;5.03;;;8.50;99.90;;;;;;4809329;29;20324;-77
2021/05/14 05:20:04;;;;;;;7.20;4.15;;;8.60;99.90;;;;;;4809093;29;20175;-78
2021/05/14 05:22:30;;;;;;;3.97;3.58;;;8.70;99.90;;;;;;4809331;29;20184;-78
2021/05/14 05:24:55;;;;;;;3.77;3.40;;;8.70;99.90;;;;;;4808566;29;20688;-78
2021/05/14 05:27:21;;;;;;;3.73;3.30;;;8.60;99.90;;;;;;4809024;29;20201;-76
2021/05/14 05:29:46;;;;;;;5.03;3.47;;;8.70;99.90;;;;;;4809048;29;20190;-77
2021/05/14 05:32:12;;;;;;;2.80;2.60;;;8.80;99.90;;;;;;4809071;29;20193;-76
2021/05/14 05:34:38;;;;;;;6.00;2.97;;;8.80;99.90;;;;;;4808369;29;20721;-77
2021/05/14 05:37:03;;;;;;;2.90;2.70;;;8.80;99.90;;;;;;4808612;29;20189;-75
2021/05/14 05:39:29;;;;;;;5.03;3.40;;;8.80;99.90;;;;;;4808771;29;20201;-77
2021/05/14 05:41:55;;;;;;;3.60;3.30;;;8.80;99.90;;;;;;4808756;29;20922;-76
2021/05/14 05:44:20;;;;;;;6.93;3.20;;;8.80;99.90;;;;;;4808370;29;20731;-75
2021/05/14 05:46:46;;;;;;;3.50;2.90;;;8.80;99.90;;;;;;4808633;29;20189;-78
2021/05/14 05:49:11;;;;;;;3.77;2.97;;;8.80;99.90;;;;;;4808512;29;20721;-78
2021/05/14 05:51:37;;;;;;;2.77;2.57;;;8.80;99.90;;;;;;4808578;29;20557;-76
2021/05/14 05:54:03;;;;;;;2.87;2.67;;;8.80;99.90;;;;;;4808746;29;20747;-77
2021/05/14 05:56:29;;;;;;;3.80;2.83;;;8.80;99.90;;;;;;4808318;29;20210;-76
2021/05/14 05:58:55;;;;;;;3.70;3.10;;;8.80;99.90;;;;;;4808568;29;20269;-76
2021/05/14 06:01:21;;;;;;;3.60;2.90;;;8.90;99.90;;;;;;4808708;29;20598;-77
2021/05/14 06:03:47;;;;;;;3.17;2.88;;;8.90;99.90;;;;;;4808856;29;20178;-77
2021/05/14 06:06:13;;;;;;;3.80;3.08;;;9.10;99.90;;;;;;4808100;29;20213;-77
2021/05/14 06:08:39;;;;;;;2.90;2.70;;;9.10;99.90;;;;;;4808376;29;20186;-78
2021/05/14 06:11:04;;;;;;;3.40;2.70;;;9.20;99.90;;;;;;4808395;29;20570;-78
2021/05/14 06:13:34;;;;;;;3.50;2.33;;;9.30;99.90;;;;;;4807928;29;20315;-78
2021/05/14 06:16:01;;;;;;;2.67;2.40;;;9.30;99.90;;;;;;4836804;29;20226;-79
2021/05/14 06:18:32;;;;;;;2.75;2.55;;;9.50;99.90;;;;;;4807998;29;20187;-77
2021/05/14 06:20:59;;;;;;;2.85;2.42;;;9.50;99.90;;;;;;4837236;29;20191;-79
2021/05/14 06:23:25;;;;;;;3.10;2.80;;;9.60;99.90;;;;;;4836672;29;20193;-79
2021/05/14 06:25:50;;;;;;;2.20;2.00;;;9.60;99.90;;;;;;4807504;29;20639;-77
2021/05/14 06:28:18;;;;;;;3.40;2.80;;;9.70;99.90;;;;;;4808123;29;20194;-78
2021/05/14 06:30:44;;;;;;;6.97;2.97;;;9.70;99.90;;;;;;4807920;29;20671;-79
2021/05/14 06:33:09;;;;;;;3.53;2.73;;;9.80;99.90;;;;;;4807854;29;20190;-78
2021/05/14 06:35:35;;;;;;;2.60;2.40;;;9.80;99.90;;;;;;4807271;29;20225;-78
2021/05/14 06:38:01;;;;;;;4.82;3.22;;;9.90;99.90;;;;;;4836996;29;20607;-78
2021/05/14 06:40:26;;;;;;;3.30;2.27;;;10.00;99.90;;;;;;4808008;29;20238;-75
2021/05/14 06:42:52;;;;;;;3.03;2.63;;;10.10;99.90;;;;;;4807793;29;20183;-76
2021/05/14 06:45:18;;;;;;;4.50;2.30;;;10.10;99.90;;;;;;4807396;29;20202;-77
2021/05/14 06:47:43;;;;;;;2.47;1.90;;;10.10;99.90;;;;;;4836153;29;20347;-79
2021/05/14 06:50:09;;;;;;;2.80;2.40;;;10.20;99.90;;;;;;4807311;29;20713;-78
2021/05/14 06:52:36;;;;;;;4.67;2.50;;;10.30;99.90;;;;;;4807785;29;20182;-77
2021/05/14 06:55:07;;;;;;;4.53;2.70;;;10.40;99.90;;;;;;4807295;29;20483;-78
2021/05/14 06:57:33;;;;;;;3.88;2.45;;;10.60;99.90;;;;;;4807557;29;20204;-77
2021/05/14 06:59:59;;;;;;;5.13;2.03;;;10.70;99.90;;;;;;4807836;29;20186;-79
2021/05/14 07:02:25;;;;;;;2.10;1.90;;;10.70;99.90;;;;;;4836932;29;20190;-76
2021/05/14 07:04:50;;;;;;;8.30;2.27;;;10.80;99.90;;;;;;4807588;29;20206;-78
2021/05/14 07:07:17;;;;;;;2.80;2.30;;;10.90;99.90;;;;;;4807565;29;20425;-77
2021/05/14 07:09:46;;;;;;;2.40;2.20;;;11.10;99.90;;;;;;4807466;29;20185;-77
2021/05/14 07:12:12;;;;;;;2.70;2.33;;;11.00;99.90;;;;;;4807591;29;20432;-77
2021/05/14 07:14:37;;;;;;;5.37;2.63;;;11.00;99.90;;;;;;4807090;29;20304;-75
2021/05/14 07:17:03;;;;;;;2.70;2.20;;;11.20;99.90;;;;;;4807840;29;20567;-76
2021/05/14 07:19:28;;;;;;;4.00;2.73;;;11.40;99.90;;;;;;4807616;29;20178;-76
2021/05/14 07:21:55;;;;;;;4.13;2.40;;;11.50;99.90;;;;;;4836374;29;20189;-76
2021/05/14 07:24:20;;;;;;;3.37;2.00;;;11.40;99.90;;;;;;4807049;29;20197;-76
2021/05/14 07:26:46;;;;;;;2.97;2.33;;;11.50;99.90;;;;;;4807150;29;20428;-78
2021/05/14 07:29:12;;;;;;;3.30;2.30;;;11.80;99.90;;;;;;4807138;29;20220;-79
2021/05/14 07:31:38;;;;;;;2.00;1.90;;;12.20;99.90;;;;;;4806906;29;20952;-77
2021/05/14 07:34:04;;;;;;;3.13;2.30;;;12.00;99.90;;;;;;4806612;29;20467;-78
2021/05/14 07:36:29;;;;;;;3.60;2.10;;;12.20;99.90;;;;;;4835567;29;20713;-78
2021/05/14 07:38:55;;;;;;;3.70;2.13;;;12.50;99.90;;;;;;4835790;29;20267;-78
2021/05/14 07:41:21;;;;;;;4.60;2.40;;;12.60;99.90;;;;;;4806788;29;20271;-77
2021/05/14 07:43:46;;;;;;;3.23;2.03;;;12.60;99.90;;;;;;4806819;29;20179;-77
2021/05/14 07:46:12;;;;;;;4.47;2.20;;;12.60;99.90;;;;;;4806055;29;20206;-77
2021/05/14 07:48:38;;;;;;;3.20;1.83;;;12.60;99.90;;;;;;4806555;29;20265;-77
2021/05/14 07:51:03;;;;;;;2.83;2.30;;;12.60;99.90;;;;;;4806539;29;20231;-77
2021/05/14 07:53:29;;;;;;;5.03;2.30;;;12.60;99.90;;;;;;4806434;29;20178;-78
2021/05/14 07:55:55;;;;;;;5.33;2.20;;;12.90;99.90;;;;;;4805870;29;20769;-77
2021/05/14 07:58:20;;;;;;;5.37;2.60;;;13.10;99.90;;;;;;4806193;29;20198;-77
2021/05/14 08:00:49;;;;;;;2.27;1.87;;;13.30;99.90;;;;;;4835392;29;20186;-79
2021/05/14 08:03:15;;;;;;;2.70;2.10;;;13.40;99.90;;;;;;4806534;29;20783;-79
2021/05/14 08:05:40;;;;;;;4.40;2.20;;;13.60;99.90;;;;;;4806268;29;20538;-77
2021/05/14 08:08:15;;;;;;;7.23;2.57;;;13.30;99.90;;;;;;4835672;29;20515;-79
2021/05/14 08:10:41;;;;;;;2.30;2.07;;;13.50;99.90;;;;;;4806393;29;20200;-79
2021/05/14 08:13:07;;;;;;;2.90;2.20;;;13.90;99.90;;;;;;4806377;29;20428;-78
2021/05/14 08:15:33;;;;;;;3.67;1.90;;;14.30;99.90;;;;;;4805324;29;20506;-78
2021/05/14 08:17:59;;;;;;;3.23;1.40;;;14.50;99.90;;;;;;4806123;29;20258;-77
2021/05/14 08:20:25;;;;;;;7.67;2.27;;;14.50;99.90;;;;;;4806199;29;20497;-77
2021/05/14 08:22:52;;;;;;;2.63;1.87;;;14.60;99.90;;;;;;4806248;29;20186;-79
2021/05/14 08:25:17;;;;;;;3.90;1.40;;;14.60;99.90;;;;;;4805851;29;20447;-78
2021/05/14 08:27:43;;;;;;;4.17;1.70;;;14.90;99.90;;;;;;4835341;29;20419;-78
2021/05/14 08:30:11;;;;;;;3.80;1.90;;;15.20;99.90;;;;;;4806114;29;20178;-79
2021/05/14 08:32:37;;;;;;;3.23;1.87;;;15.00;99.90;;;;;;4806040;29;20218;-78
2021/05/14 08:35:04;;;;;;;4.67;1.50;;;14.90;99.90;;;;;;4805779;29;20559;-78
2021/05/14 08:37:30;;;;;;;4.10;2.10;;;15.00;99.90;;;;;;4806112;29;20283;-77
2021/05/14 08:39:56;;;;;;;1.87;1.47;;;15.50;99.90;;;;;;4805972;29;20511;-76
2021/05/14 08:42:22;;;;;;;8.90;2.30;;;15.80;99.90;;;;;;4805873;29;20316;-77
2021/05/14 08:44:48;;;;;;;1.63;1.40;;;15.50;99.90;;;;;;4805432;29;21021;-78
2021/05/14 08:47:15;;;;;;;5.70;1.83;;;15.30;99.90;;;;;;4805954;29;20507;-80
2021/05/14 08:49:46;;;;;;;3.50;1.73;;;15.90;99.90;;;;;;4805893;29;20434;-79
2021/05/14 08:52:12;;;;;;;5.10;1.60;;;15.40;99.90;;;;;;4805927;29;20815;-78
2021/05/14 08:54:45;;;;;;;4.23;1.83;;;15.10;99.90;;;;;;4805349;29;20829;-80
2021/05/14 08:57:11;;;;;;;2.43;1.70;;;15.90;99.90;;;;;;4805939;29;20457;-76
2021/05/14 08:59:38;;;;;;;4.03;2.10;;;16.60;99.90;;;;;;4806427;29;20520;-78
2021/05/14 09:02:04;;;;;;;3.17;1.53;;;17.10;99.90;;;;;;4806028;29;20572;-75
2021/05/14 09:04:31;;;;;;;2.67;1.60;;;16.20;99.90;;;;;;4805352;29;20419;-77
2021/05/14 09:06:56;;;;;;;3.37;1.83;;;16.60;99.90;;;;;;4805694;29;20184;-78
2021/05/14 09:09:22;;;;;;;3.70;1.40;;;17.40;99.90;;;;;;4805793;29;20514;-78
2021/05/14 09:11:51;;;;;;;5.70;2.00;;;17.30;99.90;;;;;;4807104;29;20174;-79
2021/05/14 09:14:36;;;;;;;2.80;1.50;;;16.90;99.90;;;;;;4808923;29;20233;-79
2021/05/14 09:17:09;;;;;;;1.50;1.20;;;16.40;99.90;;;;;;4808914;29;20415;-77
2021/05/14 09:19:37;;;;;;;2.53;1.40;;;17.40;99.90;;;;;;4808909;29;20408;-78
2021/05/14 09:22:07;;;;;;;1.40;1.10;;;18.30;99.90;;;;;;4809137;29;20447;-79
2021/05/14 09:24:32;;;;;;;1.80;1.27;;;18.50;99.90;;;;;;4808628;29;20423;-79
2021/05/14 09:26:58;;;;;;;2.70;1.33;;;17.50;99.90;;;;;;4808783;29;20432;-77
2021/05/14 09:29:39;;;;;;;4.17;1.80;;;17.20;99.90;;;;;;4838223;29;20193;-79
2021/05/14 09:32:30;;;;;;;1.93;1.47;;;17.50;99.90;;;;;;4838327;29;20598;-79
2021/05/14 09:34:58;;;;;;;1.47;0.90;;;17.70;99.90;;;;;;4837320;29;20475;-78
2021/05/14 09:37:25;;;;;;;2.90;1.10;;;17.50;99.90;;;;;;4808761;29;20778;-75
2021/05/14 09:40:18;;;;;;;1.73;1.07;;;17.40;99.90;;;;;;4808500;29;20412;-80
2021/05/14 09:42:45;;;;;;;1.37;1.27;;;17.20;99.90;;;;;;4808609;29;20496;-76
2021/05/14 09:45:25;;;;;;;2.23;1.10;;;17.10;99.90;;;;;;4808233;29;20448;-77
2021/05/14 09:47:58;;;;;;;3.97;1.40;;;17.30;99.90;;;;;;4808674;29;20424;-79
2021/05/14 09:50:36;;;;;;;1.95;1.20;;;17.60;99.90;;;;;;4805233;29;20433;-80
2021/05/14 09:53:15;;;;;;;4.00;1.30;;;17.80;99.90;;;;;;4804970;29;20201;-82
2021/05/14 09:55:59;;;;;;;21.67;2.07;;;17.80;99.90;;;;;;4806034;29;20475;-79
2021/05/14 09:58:29;;;;;;;6.40;1.50;;;17.30;99.90;;;;;;4803544;29;20447;-80
2021/05/14 10:00:55;;;;;;;3.00;1.43;;;17.30;99.90;;;;;;4806383;29;20451;-80
2021/05/14 10:03:22;;;;;;;3.30;1.50;;;17.00;99.90;;;;;;4806005;29;20431;-78
2021/05/14 10:05:50;;;;;;;3.60;1.43;;;16.70;99.90;;;;;;4806506;29;20448;-79
2021/05/14 10:08:20;;;;;;;5.23;1.70;;;16.60;99.90;;;;;;4805950;29;20425;-78
2021/05/14 10:10:46;;;;;;;3.00;1.40;;;17.20;99.90;;;;;;4819682;29;20440;-80
2021/05/14 10:13:12;;;;;;;2.00;1.57;;;17.10;99.90;;;;;;4805832;29;20418;-77
2021/05/14 10:15:39;;;;;;;2.67;1.97;;;16.90;99.90;;;;;;4864147;23;20471;-77
2021/05/14 10:18:13;;;;;;;2.47;1.33;;;16.40;99.90;;;;;;4860807;29;20406;-79
2021/05/14 10:20:40;;;;;;;4.03;1.60;;;16.60;99.90;;;;;;4861649;29;20409;-81
2021/05/14 10:23:07;;;;;;;1.93;1.50;;;16.60;99.90;;;;;;4859350;29;20425;-78
2021/05/14 10:25:42;;;;;;;1.93;1.20;;;16.50;99.90;;;;;;4861421;29;20456;-78
2021/05/14 10:28:11;;;;;;;1.73;1.10;;;16.40;99.90;;;;;;4859363;29;20440;-79
2021/05/14 10:30:57;;;;;;;2.07;1.23;;;16.30;99.90;;;;;;4861096;29;20413;-79
2021/05/14 10:33:46;;;;;;;4.90;1.10;;;16.10;99.90;;;;;;4875411;29;20817;-77
2021/05/14 10:36:37;;;;;;;2.60;1.10;;;15.70;99.90;;;;;;4859800;29;20856;-76
2021/05/14 10:39:07;;;;;;;7.10;1.50;;;15.70;99.90;;;;;;4860889;29;20492;-78
2021/05/14 10:41:45;;;;;;;1.67;1.00;;;15.70;99.90;;;;;;4860103;29;21235;-78
2021/05/14 10:44:11;;;;;;;2.73;0.83;;;15.30;99.90;;;;;;4859135;29;20465;-77
2021/05/14 10:46:36;;;;;;;2.00;1.00;;;14.90;99.90;;;;;;4862303;29;20473;-79
2021/05/14 10:49:11;;;;;;;1.30;0.90;;;14.60;99.90;;;;;;4862281;29;20195;-77
2021/05/14 10:52:00;;;;;;;1.73;1.00;;;14.40;99.90;;;;;;4862177;29;20179;-79
2021/05/14 10:54:42;;;;;;;1.53;1.10;;;14.20;99.90;;;;;;4853280;29;20632;-79
2021/05/14 10:57:09;;;;;;;4.30;1.33;;;13.80;99.90;;;;;;4857604;29;20451;-79
2021/05/14 10:59:39;;;;;;;2.90;1.40;;;13.40;99.90;;;;;;4860755;29;20523;-80
2021/05/14 11:02:27;;;;;;;3.70;1.30;;;13.40;99.90;;;;;;4859803;29;20770;-80
2021/05/14 11:04:54;;;;;;;4.13;1.00;;;13.20;99.90;;;;;;4860253;29;20926;-80
2021/05/14 11:07:32;;;;;;;2.70;1.40;;;13.10;99.90;;;;;;4858908;29;20457;-80
2021/05/14 11:10:15;;;;;;;1.67;1.57;;;13.00;99.90;;;;;;4858800;29;20413;-80
2021/05/14 11:12:41;;;;;;;1.70;1.13;;;13.00;99.90;;;;;;4874221;29;20472;-81
2021/05/14 11:15:19;;;;;;;2.10;1.10;;;12.90;99.90;;;;;;4870853;29;20916;-80
2021/05/14 11:18:07;;;;;;;3.57;1.50;;;12.90;99.90;;;;;;4860467;29;20428;-80
2021/05/14 11:20:49;;;;;;;1.53;1.40;;;12.90;99.90;;;;;;4859497;29;20416;-80
2021/05/14 11:23:35;;;;;;;2.40;1.50;;;13.00;99.90;;;;;;4858609;29;20468;-80
2021/05/14 11:26:17;;;;;;;2.13;1.93;;;13.10;99.90;;;;;;4860012;29;20953;-80
2021/05/14 11:28:48;;;;;;;1.80;1.10;;;13.20;99.90;;;;;;4859148;29;20429;-80
2021/05/14 11:31:24;;;;;;;1.53;1.33;;;13.30;99.90;;;;;;4874416;29;20436;-80
2021/05/14 11:33:55;;;;;;;1.37;1.27;;;13.50;99.90;;;;;;4859848;29;20447;-82
2021/05/14 11:36:22;;;;;;;1.67;1.20;;;13.50;99.90;;;;;;4858620;29;20457;-80
2021/05/14 11:38:56;;;;;;;2.27;1.73;;;13.60;99.90;;;;;;4860282;29;20437;-81
2021/05/14 11:41:40;;;;;;;2.90;1.50;;;13.90;99.90;;;;;;4858435;29;20496;-81
2021/05/14 11:44:06;;;;;;;2.07;1.20;;;14.20;99.90;;;;;;4859097;29;20451;-80
2021/05/14 11:46:33;;;;;;;3.90;1.50;;;14.20;99.90;;;;;;4858129;29;20838;-81
2021/05/14 11:49:09;;;;;;;1.40;1.10;;;14.40;99.90;;;;;;4860036;29;20211;-81
2021/05/14 11:51:37;;;;;;;1.90;1.00;;;14.70;99.90;;;;;;4857610;29;20523;-84
2021/05/14 11:54:12;;;;;;;2.40;0.83;;;14.90;99.90;;;;;;4859514;29;20952;-82
2021/05/14 11:56:39;;;;;;;1.00;0.90;;;15.20;99.90;;;;;;4857055;29;20492;-82
2021/05/14 11:59:05;;;;;;;1.17;1.07;;;15.20;99.90;;;;;;4859042;29;20421;-81
2021/05/14 12:01:38;;;;;;;1.00;0.70;;;15.30;99.90;;;;;;4856074;29;20476;-83
2021/05/14 12:04:05;;;;;;;1.17;0.77;;;15.30;99.90;;;;;;4858438;29;20936;-81
2021/05/14 12:06:58;;;;;;;1.03;0.70;;;15.30;99.90;;;;;;4858918;29;20426;-80
2021/05/14 12:09:24;;;;;;;1.77;0.90;;;15.20;99.90;;;;;;4853918;29;20441;-81
2021/05/14 12:11:50;;;;;;;1.00;0.77;;;15.30;99.90;;;;;;4871656;29;20437;-83
2021/05/14 12:14:24;;;;;;;3.07;0.90;;;15.20;99.90;;;;;;4858215;29;20212;-82
2021/05/14 12:16:51;;;;;;;1.50;0.90;;;15.20;99.90;;;;;;4858809;29;20199;-79
2021/05/14 12:19:17;;;;;;;1.30;1.20;;;15.10;99.90;;;;;;4842176;29;20424;-81
2021/05/14 12:21:42;;;;;;;1.53;1.10;;;14.90;99.90;;;;;;4843089;29;20417;-78
2021/05/14 12:24:16;;;;;;;2.23;1.40;;;14.80;99.90;;;;;;4857422;29;20195;-80
2021/05/14 12:26:42;;;;;;;1.30;1.07;;;15.50;99.90;;;;;;4857997;29;20252;-78
2021/05/14 12:29:29;;;;;;;5.53;1.30;;;16.20;99.90;;;;;;4858808;29;20516;-79
2021/05/14 12:31:57;;;;;;;2.40;1.30;;;17.10;99.90;;;;;;4857558;29;20934;-78
2021/05/14 12:34:23;;;;;;;2.40;1.10;;;17.40;99.90;;;;;;4858588;29;20512;-78
2021/05/14 12:37:00;;;;;;;1.03;0.90;;;18.00;99.90;;;;;;4859847;29;20451;-76
2021/05/14 12:39:26;;;;;;;1.07;0.80;;;18.10;99.90;;;;;;4858566;29;20211;-75
2021/05/14 12:42:01;;;;;;;0.80;0.73;;;18.50;99.90;;;;;;4859497;29;20429;-77
2021/05/14 12:44:37;;;;;;;1.70;0.90;;;18.30;99.90;;;;;;4858867;29;20399;-77
2021/05/14 12:47:14;;;;;;;1.50;0.70;;;19.10;99.90;;;;;;4860072;29;20399;-77
2021/05/14 12:50:05;;;;;;;0.87;0.70;;;19.30;99.90;;;;;;4863038;29;20395;-76
2021/05/14 12:52:31;;;;;;;0.90;0.60;;;20.10;99.90;;;;;;4863371;29;20511;-76
2021/05/14 12:55:14;;;;;;;1.47;0.77;;;20.80;99.90;;;;;;4862439;29;20461;-76
2021/05/14 12:57:40;;;;;;;1.10;0.60;;;21.20;99.90;;;;;;4861832;29;20411;-78
2021/05/14 13:00:17;;;;;;;1.73;0.83;;;21.70;99.90;;;;;;4862754;29;20835;-78